Terminal Aerodrome Forecast
Issued by NWS

Home | Current Version | Previous Version | Text Only | Print | Product List | Glossary On
Versions: 1 2 3 4 5 6 7 8 9 10 11 12 13 14 15 16 17 18 19 20
485
FTUS46 KPDT 091228 AAA
TAFDLS
TAF AMD
KDLS 091228Z 0912/1012 10005KT 5SM -SHSN BR OVC035
      TEMPO 0912/0916 1SM -SN BR BKN008 OVC025
     FM092000 09003KT 3SM -SN BR OVC015=

USA.gov is the U.S. government's official web portal to all federal, state and local government web resources and services.